createdAt,value
2022-11-28T05:02:57.386Z,101062.00
2022-11-28T05:05:28.375Z,101078.00
2022-11-28T05:07:56.609Z,101077.00
2022-11-28T05:10:24.858Z,101077.00
2022-11-28T05:12:54.127Z,101081.00
2022-11-28T05:15:22.417Z,101082.00
2022-11-28T05:17:50.570Z,101078.00
2022-11-28T05:20:20.339Z,101062.00
2022-11-28T05:22:48.481Z,101083.00
2022-11-28T05:25:17.282Z,101080.00
2022-11-28T05:27:45.745Z,101065.00
2022-11-28T05:30:15.482Z,101081.00
2022-11-28T05:32:43.679Z,101071.00
2022-11-28T05:35:11.888Z,101071.00
2022-11-28T05:37:41.631Z,101079.00
2022-11-28T05:40:10.579Z,101049.00
2022-11-28T05:42:38.814Z,101071.00
2022-11-28T05:45:08.172Z,101065.00
2022-11-28T05:47:36.376Z,101058.00
2022-11-28T05:50:06.262Z,101051.00
2022-11-28T05:52:34.591Z,101056.00
2022-11-28T05:55:04.243Z,101046.00
2022-11-28T05:57:33.499Z,101060.00
2022-11-28T06:00:01.694Z,101050.00
2022-11-28T06:02:30.083Z,101049.00
2022-11-28T06:04:59.980Z,101047.00
2022-11-28T06:07:32.684Z,101038.00
2022-11-28T06:10:00.975Z,101034.00
2022-11-28T06:12:30.624Z,101038.00
2022-11-28T06:14:58.817Z,101028.00
2022-11-28T06:17:27.012Z,101021.00
2022-11-28T06:19:55.188Z,101025.00
2022-11-28T06:22:23.373Z,101032.00
2022-11-28T06:24:51.539Z,101020.00
2022-11-28T06:27:19.744Z,101019.00
2022-11-28T06:29:49.322Z,101015.00
2022-11-28T06:32:21.892Z,101017.00
2022-11-28T06:34:50.416Z,100995.00
2022-11-28T06:37:18.704Z,101012.00
2022-11-28T06:39:47.042Z,101012.00
2022-11-28T06:42:16.174Z,101017.00
2022-11-28T06:44:44.526Z,101014.00
2022-11-28T06:47:14.125Z,101017.00
2022-11-28T06:49:42.836Z,101007.00
2022-11-28T06:52:11.187Z,101020.00
2022-11-28T06:54:39.351Z,101022.00
2022-11-28T06:57:07.480Z,101020.00
2022-11-28T06:59:35.584Z,101018.00
2022-11-28T07:02:07.402Z,101018.00
2022-11-28T07:04:37.593Z,101019.00
2022-11-28T07:07:05.778Z,101017.00
2022-11-28T07:09:33.996Z,101013.00
2022-11-28T07:12:02.265Z,101013.00
2022-11-28T07:14:33.724Z,101015.00
2022-11-28T07:17:02.321Z,101006.00
2022-11-28T07:19:30.641Z,101016.00
2022-11-28T07:22:01.176Z,100998.00
2022-11-28T07:24:30.065Z,100980.00
2022-11-28T07:26:58.251Z,101010.00
2022-11-28T07:29:30.765Z,101008.00
2022-11-28T07:31:59.000Z,101016.00
2022-11-28T07:34:27.475Z,101002.00
2022-11-28T07:36:55.673Z,101021.00
2022-11-28T07:39:25.409Z,101021.00
2022-11-28T07:41:53.576Z,101012.00
2022-11-28T07:44:22.070Z,101007.00
2022-11-28T07:46:50.426Z,101016.00
2022-11-28T07:49:18.696Z,101006.00
2022-11-28T07:51:47.166Z,100999.00
2022-11-28T07:54:15.362Z,101016.00
2022-11-28T07:57:11.612Z,101007.00
2022-11-28T07:59:34.148Z,101006.00
2022-11-28T08:02:02.372Z,101003.00
2022-11-28T08:04:30.677Z,100990.00
2022-11-28T08:06:58.934Z,100990.00
2022-11-28T08:09:27.163Z,101000.00
2022-11-28T08:11:56.915Z,100992.00
2022-11-28T08:14:26.003Z,100992.00
2022-11-28T08:16:54.255Z,100994.00
2022-11-28T08:19:24.510Z,101010.00
2022-11-28T08:21:54.198Z,100991.00
2022-11-28T08:24:22.406Z,101000.00
2022-11-28T08:26:50.611Z,100992.00
2022-11-28T08:29:20.236Z,100988.00
2022-11-28T08:31:48.395Z,100981.00
2022-11-28T08:34:16.618Z,100982.00
2022-11-28T08:36:45.082Z,100975.00
2022-11-28T08:39:28.785Z,100992.00
2022-11-28T08:41:59.180Z,100976.00
2022-11-28T08:44:30.734Z,100984.00
2022-11-28T08:47:00.418Z,100978.00
2022-11-28T08:49:28.732Z,100985.00
2022-11-28T08:51:56.928Z,100986.00
2022-11-28T08:54:25.204Z,100985.00
2022-11-28T08:56:53.426Z,100985.00
2022-11-28T08:59:21.746Z,100981.00
2022-11-28T09:01:53.419Z,100985.00
2022-11-28T09:04:21.933Z,100982.00
2022-11-28T09:06:50.287Z,100985.00
2022-11-28T09:09:18.440Z,100981.00
2022-11-28T09:11:46.917Z,100990.00
2022-11-28T09:14:15.173Z,100987.00
2022-11-28T09:16:43.565Z,100983.00
2022-11-28T09:19:13.131Z,100978.00
2022-11-28T09:21:42.094Z,100982.00
2022-11-28T09:24:13.853Z,100975.00
2022-11-28T09:26:42.956Z,100987.00
2022-11-28T09:29:11.174Z,100987.00
2022-11-28T09:31:43.161Z,100983.00
2022-11-28T09:34:16.940Z,100967.00
2022-11-28T09:36:45.428Z,100986.00
2022-11-28T09:39:13.633Z,100985.00
2022-11-28T09:42:07.368Z,100988.00
2022-11-28T09:44:43.956Z,100978.00
2022-11-28T09:47:20.829Z,100981.00
2022-11-28T09:49:56.171Z,100981.00
2022-11-28T09:52:35.562Z,100969.00
2022-11-28T09:55:17.148Z,100968.00
2022-11-28T09:57:49.118Z,100969.00
2022-11-28T10:00:21.495Z,100970.00
2022-11-28T10:03:35.402Z,100970.00
2022-11-28T10:06:18.747Z,100961.00
2022-11-28T10:09:06.919Z,100956.00
2022-11-28T10:11:50.919Z,100962.00
2022-11-28T10:14:50.287Z,100944.00
2022-11-28T10:17:37.969Z,100951.00
2022-11-28T10:20:13.382Z,100959.00
2022-11-28T10:22:49.496Z,100941.00
2022-11-28T10:25:23.346Z,100943.00
2022-11-28T10:27:52.166Z,100947.00
2022-11-28T10:30:24.878Z,100959.00
2022-11-28T10:33:09.555Z,100952.00
2022-11-28T10:35:45.602Z,100946.00
2022-11-28T10:38:18.965Z,100931.00
2022-11-28T10:40:56.393Z,100934.00
2022-11-28T10:43:38.115Z,100925.00
2022-11-28T10:46:49.695Z,100930.00
2022-11-28T10:49:37.061Z,100937.00
2022-11-28T10:52:16.622Z,100941.00
2022-11-28T10:55:06.816Z,100937.00
2022-11-28T10:57:44.093Z,100937.00
2022-11-28T11:00:14.904Z,100938.00
2022-11-28T11:02:47.646Z,100937.00
2022-11-28T11:05:18.757Z,100942.00
2022-11-28T11:07:53.161Z,100934.00
2022-11-28T11:10:28.848Z,100927.00
2022-11-28T11:12:57.297Z,100931.00
2022-11-28T11:15:32.571Z,100913.00
2022-11-28T11:18:06.609Z,100921.00
2022-11-28T11:20:39.369Z,100922.00
2022-11-28T11:23:19.286Z,100919.00
2022-11-28T11:25:54.296Z,100906.00
2022-11-28T11:28:45.084Z,100899.00
2022-11-28T11:31:25.860Z,100910.00
2022-11-28T11:34:03.548Z,100912.00
2022-11-28T11:36:34.556Z,100924.00
2022-11-28T11:39:25.608Z,100912.00
2022-11-28T11:42:12.712Z,100927.00
2022-11-28T11:44:40.971Z,100927.00
2022-11-28T11:47:11.870Z,100920.00
2022-11-28T11:49:43.660Z,100916.00
2022-11-28T11:52:23.325Z,100908.00
2022-11-28T11:55:00.732Z,100906.00
2022-11-28T11:57:38.115Z,100908.00
2022-11-28T12:00:16.187Z,100915.00
2022-11-28T12:02:47.799Z,100913.00
2022-11-28T12:05:20.956Z,100898.00
2022-11-28T12:07:58.386Z,100907.00
2022-11-28T12:10:31.346Z,100902.00
2022-11-28T12:13:02.812Z,100899.00
2022-11-28T12:15:42.834Z,100897.00
2022-11-28T12:18:30.354Z,100890.00
2022-11-28T12:21:14.170Z,100894.00
2022-11-28T12:24:11.030Z,100890.00
2022-11-28T12:26:48.196Z,100885.00
2022-11-28T12:29:51.721Z,100874.00
2022-11-28T12:32:38.098Z,100873.00
2022-11-28T12:35:26.526Z,100868.00
2022-11-28T12:38:12.151Z,100872.00
2022-11-28T12:41:03.178Z,100871.00
2022-11-28T12:43:54.602Z,100872.00
2022-11-28T12:46:35.267Z,100868.00
2022-11-28T12:49:19.055Z,100877.00
2022-11-28T12:52:04.115Z,100879.00
2022-11-28T12:55:06.573Z,100866.00
2022-11-28T12:57:44.310Z,100885.00
2022-11-28T13:00:19.554Z,100874.00
2022-11-28T13:03:08.692Z,100884.00
2022-11-28T13:05:57.388Z,100882.00
2022-11-28T13:08:48.451Z,100878.00
2022-11-28T13:11:38.721Z,100871.00
2022-11-28T13:14:21.264Z,100876.00
2022-11-28T13:16:53.866Z,100880.00
2022-11-28T13:19:37.632Z,100866.00
2022-11-28T13:22:15.454Z,100868.00
2022-11-28T13:25:00.708Z,100868.00
2022-11-28T13:27:42.757Z,100860.00
2022-11-28T13:30:22.445Z,100861.00
2022-11-28T13:33:02.516Z,100861.00
2022-11-28T13:35:33.424Z,100861.00
2022-11-28T13:41:35.213Z,100867.00
2022-11-28T13:44:08.826Z,100863.00
2022-11-28T13:46:37.468Z,100858.00
2022-11-28T13:49:21.120Z,100859.00
2022-11-28T13:52:32.872Z,100863.00
2022-11-28T13:55:01.620Z,100859.00
2022-11-28T13:57:38.932Z,100853.00
2022-11-28T14:00:23.120Z,100850.00
2022-11-28T14:02:55.569Z,100860.00
2022-11-28T14:05:35.786Z,100867.00
2022-11-28T14:08:07.667Z,100854.00
2022-11-28T14:11:05.702Z,100826.00
2022-11-28T14:14:04.156Z,100862.00
2022-11-28T14:16:53.968Z,100849.00
2022-11-28T14:19:48.786Z,100854.00
2022-11-28T14:22:38.913Z,100850.00
2022-11-28T14:25:19.283Z,100848.00
2022-11-28T14:27:54.628Z,100856.00
2022-11-28T14:30:31.572Z,100847.00
2022-11-28T14:33:05.807Z,100859.00
2022-11-28T14:36:24.703Z,100860.00
2022-11-28T14:39:32.937Z,100855.00
2022-11-28T14:42:59.500Z,100862.00
2022-11-28T14:45:45.178Z,100855.00
2022-11-28T14:48:30.884Z,100849.00
2022-11-28T14:51:02.052Z,100844.00
2022-11-28T14:53:47.483Z,100862.00
2022-11-28T14:56:28.992Z,100854.00
2022-11-28T14:59:03.883Z,100855.00
2022-11-28T15:01:54.542Z,100849.00
2022-11-28T15:04:57.091Z,100858.00
2022-11-28T15:07:36.868Z,100861.00
2022-11-28T15:10:17.432Z,100858.00
2022-11-28T15:13:00.720Z,100854.00
2022-11-28T15:15:30.664Z,100872.00
2022-11-28T15:18:04.677Z,100863.00
2022-11-28T15:20:42.552Z,100868.00
2022-11-28T15:23:24.544Z,100874.00
2022-11-28T15:25:58.255Z,100869.00
2022-11-28T15:28:32.062Z,100864.00
2022-11-28T15:31:05.633Z,100861.00
2022-11-28T15:33:34.651Z,100860.00
2022-11-28T15:36:12.363Z,100862.00
2022-11-28T15:38:43.968Z,100862.00
2022-11-28T15:41:12.977Z,100855.00
2022-11-28T15:43:47.136Z,100872.00
2022-11-28T15:46:25.280Z,100872.00
2022-11-28T15:48:54.456Z,100869.00
2022-11-28T15:51:30.491Z,100869.00
2022-11-28T15:53:59.263Z,100871.00
2022-11-28T15:56:28.012Z,100862.00
2022-11-28T15:58:56.514Z,100878.00
2022-11-28T16:01:28.002Z,100881.00
2022-11-28T16:04:03.262Z,100870.00
2022-11-28T16:06:36.891Z,100865.00
2022-11-28T16:09:09.335Z,100876.00
2022-11-28T16:11:38.153Z,100885.00
2022-11-28T16:14:11.603Z,100875.00
2022-11-28T16:16:41.683Z,100878.00
2022-11-28T16:19:23.884Z,100878.00
2022-11-28T16:21:57.005Z,100884.00
2022-11-28T16:24:36.887Z,100884.00
2022-11-28T16:27:07.795Z,100879.00
2022-11-28T16:29:37.995Z,100889.00
2022-11-28T16:32:23.290Z,100882.00
2022-11-28T16:34:54.770Z,100876.00
2022-11-28T16:37:26.841Z,100881.00
2022-11-28T16:40:05.273Z,100878.00
2022-11-28T16:42:36.511Z,100877.00
2022-11-28T16:45:12.100Z,100878.00
2022-11-28T16:47:41.856Z,100875.00
2022-11-28T16:50:28.169Z,100879.00
2022-11-28T16:52:58.722Z,100884.00
2022-11-28T16:55:46.053Z,100878.00
2022-11-28T16:58:23.379Z,100877.00
2022-11-28T17:01:03.688Z,100878.00
2022-11-28T17:03:49.180Z,100886.00
2022-11-28T17:06:25.462Z,100878.00
2022-11-28T17:08:53.758Z,100880.00
2022-11-28T17:11:27.412Z,100884.00
2022-11-28T17:13:57.704Z,100881.00
2022-11-28T17:16:28.623Z,100880.00
2022-11-28T17:18:58.240Z,100878.00
2022-11-28T17:21:34.183Z,100881.00
2022-11-28T17:24:03.087Z,100875.00
2022-11-28T17:26:31.695Z,100884.00
2022-11-28T17:29:00.148Z,100882.00
2022-11-28T17:31:28.367Z,100880.00
2022-11-28T17:33:57.986Z,100880.00
2022-11-28T17:36:26.202Z,100874.00
2022-11-28T17:38:54.360Z,100877.00
2022-11-28T17:41:23.235Z,100877.00
2022-11-28T17:43:51.565Z,100878.00
2022-11-28T17:46:21.430Z,100880.00
2022-11-28T17:48:49.567Z,100888.00
2022-11-28T17:51:20.273Z,100871.00
2022-11-28T17:53:48.498Z,100881.00
2022-11-28T17:56:16.638Z,100871.00
2022-11-28T17:58:44.950Z,100857.00
2022-11-28T18:01:17.549Z,100858.00
2022-11-28T18:03:45.824Z,100855.00
2022-11-28T18:06:19.868Z,100861.00
2022-11-28T18:08:50.452Z,100850.00
2022-11-28T18:11:21.320Z,100852.00
2022-11-28T18:13:49.661Z,100861.00
2022-11-28T18:16:21.640Z,100869.00
2022-11-28T18:18:50.384Z,100868.00
2022-11-28T18:21:20.345Z,100863.00
2022-11-28T18:23:50.663Z,100863.00
2022-11-28T18:26:22.810Z,100875.00
2022-11-28T18:28:51.519Z,100866.00
2022-11-28T18:31:22.772Z,100871.00
2022-11-28T18:33:51.262Z,100866.00
2022-11-28T18:36:24.682Z,100855.00
2022-11-28T18:38:56.580Z,100866.00
2022-11-28T18:41:25.598Z,100869.00
2022-11-28T18:43:57.298Z,100863.00
2022-11-28T18:46:26.963Z,100868.00
2022-11-28T18:48:55.862Z,100878.00
2022-11-28T18:51:28.562Z,100847.00
2022-11-28T18:53:58.245Z,100869.00
2022-11-28T18:56:29.216Z,100867.00
2022-11-28T18:58:58.672Z,100867.00
2022-11-28T19:01:30.325Z,100867.00
2022-11-28T19:04:02.844Z,100865.00
2022-11-28T19:06:32.632Z,100861.00
2022-11-28T19:09:04.670Z,100868.00
2022-11-28T19:11:32.985Z,100856.00
2022-11-28T19:14:01.296Z,100854.00
2022-11-28T19:16:32.312Z,100855.00
2022-11-28T19:19:03.224Z,100822.00
2022-11-28T19:21:35.431Z,100834.00
2022-11-28T19:24:04.778Z,100850.00
2022-11-28T19:26:34.223Z,100861.00
2022-11-28T19:29:04.133Z,100861.00
2022-11-28T19:31:36.122Z,100858.00
2022-11-28T19:34:07.402Z,100856.00
2022-11-28T19:36:40.920Z,100811.00
2022-11-28T19:39:13.596Z,100869.00
2022-11-28T19:41:41.761Z,100864.00
2022-11-28T19:44:11.355Z,100869.00
2022-11-28T19:46:39.904Z,100873.00
2022-11-28T19:49:11.458Z,100864.00
2022-11-28T19:51:41.056Z,100875.00
2022-11-28T19:54:09.343Z,100873.00
2022-11-28T19:56:37.561Z,100871.00
2022-11-28T19:59:05.851Z,100883.00
2022-11-28T20:01:34.203Z,100871.00
2022-11-28T20:04:02.564Z,100867.00
2022-11-28T20:06:33.765Z,100878.00
2022-11-28T20:09:09.866Z,100872.00
2022-11-28T20:11:38.590Z,100877.00
2022-11-28T20:14:09.323Z,100876.00
2022-11-28T20:16:38.609Z,100880.00
2022-11-28T20:19:08.400Z,100884.00
2022-11-28T20:21:37.168Z,100887.00
2022-11-28T20:24:08.423Z,100896.00
2022-11-28T20:26:40.471Z,100889.00
2022-11-28T20:29:09.727Z,100891.00
2022-11-28T20:31:41.938Z,100887.00
2022-11-28T20:34:10.222Z,100877.00
2022-11-28T20:36:38.760Z,100887.00
2022-11-28T20:39:09.463Z,100882.00
2022-11-28T20:41:37.740Z,100885.00
2022-11-28T20:44:06.662Z,100882.00
2022-11-28T20:46:35.628Z,100882.00
2022-11-28T20:49:07.014Z,100887.00
2022-11-28T20:51:36.959Z,100887.00
2022-11-28T20:54:07.587Z,100884.00
2022-11-28T20:57:05.037Z,100887.00
2022-11-28T20:59:27.795Z,100892.00
2022-11-28T21:01:56.778Z,100879.00
2022-11-28T21:04:25.124Z,100876.00
2022-11-28T21:06:53.352Z,100884.00
2022-11-28T21:09:23.028Z,100885.00
2022-11-28T21:11:57.445Z,100889.00
2022-11-28T21:14:27.016Z,100882.00
2022-11-28T21:16:55.830Z,100887.00
2022-11-28T21:19:24.163Z,100879.00
2022-11-28T21:21:52.565Z,100887.00
2022-11-28T21:24:22.166Z,100885.00
2022-11-28T21:26:54.014Z,100882.00
2022-11-28T21:29:24.801Z,100868.00
2022-11-28T21:31:54.105Z,100882.00
2022-11-28T21:34:22.809Z,100880.00
2022-11-28T21:36:51.783Z,100870.00
2022-11-28T21:39:23.883Z,100885.00
2022-11-28T21:41:52.199Z,100880.00
2022-11-28T21:44:20.850Z,100883.00
2022-11-28T21:46:49.006Z,100881.00
2022-11-28T21:49:17.277Z,100880.00
2022-11-28T21:51:45.605Z,100882.00
2022-11-28T21:54:13.985Z,100883.00
2022-11-28T21:56:43.479Z,100874.00
2022-11-28T21:59:11.734Z,100874.00
